sensor_id;sensor_type;location;lat;lon;timestamp;P1;durP1;ratioP1;P2;durP2;ratioP2
24421;SDS011;12600;53.326;-6.298;2023-04-07T00:01:42;15.80;;;6.90;;
24421;SDS011;12600;53.326;-6.298;2023-04-07T00:04:32;15.10;;;7.47;;
24421;SDS011;12600;53.326;-6.298;2023-04-07T00:07:22;17.38;;;6.00;;
24421;SDS011;12600;53.326;-6.298;2023-04-07T00:10:12;9.50;;;4.88;;
24421;SDS011;12600;53.326;-6.298;2023-04-07T00:13:02;11.00;;;3.95;;
24421;SDS011;12600;53.326;-6.298;2023-04-07T00:15:51;7.88;;;3.65;;
24421;SDS011;12600;53.326;-6.298;2023-04-07T00:18:41;7.97;;;3.25;;
24421;SDS011;12600;53.326;-6.298;2023-04-07T00:21:30;6.25;;;2.45;;
24421;SDS011;12600;53.326;-6.298;2023-04-07T00:24:19;6.65;;;3.05;;
24421;SDS011;12600;53.326;-6.298;2023-04-07T00:27:21;4.85;;;3.30;;
24421;SDS011;12600;53.326;-6.298;2023-04-07T00:30:11;5.10;;;2.88;;
24421;SDS011;12600;53.326;-6.298;2023-04-07T00:33:01;5.57;;;2.97;;
24421;SDS011;12600;53.326;-6.298;2023-04-07T00:35:55;4.80;;;2.90;;
24421;SDS011;12600;53.326;-6.298;2023-04-07T00:38:44;15.50;;;11.32;;
24421;SDS011;12600;53.326;-6.298;2023-04-07T00:41:34;28.20;;;20.25;;
24421;SDS011;12600;53.326;-6.298;2023-04-07T00:44:25;14.05;;;8.43;;
24421;SDS011;12600;53.326;-6.298;2023-04-07T00:47:14;8.50;;;4.95;;
24421;SDS011;12600;53.326;-6.298;2023-04-07T00:50:03;6.07;;;4.40;;
24421;SDS011;12600;53.326;-6.298;2023-04-07T00:52:54;7.95;;;3.47;;
24421;SDS011;12600;53.326;-6.298;2023-04-07T00:55:44;7.47;;;3.45;;
24421;SDS011;12600;53.326;-6.298;2023-04-07T00:58:33;5.32;;;3.40;;
24421;SDS011;12600;53.326;-6.298;2023-04-07T01:01:25;9.77;;;3.50;;
24421;SDS011;12600;53.326;-6.298;2023-04-07T01:04:21;5.75;;;2.88;;
24421;SDS011;12600;53.326;-6.298;2023-04-07T01:07:26;5.22;;;3.20;;
24421;SDS011;12600;53.326;-6.298;2023-04-07T01:10:32;5.70;;;3.33;;
24421;SDS011;12600;53.326;-6.298;2023-04-07T01:13:35;7.82;;;4.30;;
24421;SDS011;12600;53.326;-6.298;2023-04-07T01:16:38;6.95;;;4.45;;
24421;SDS011;12600;53.326;-6.298;2023-04-07T01:19:36;7.35;;;4.30;;
24421;SDS011;12600;53.326;-6.298;2023-04-07T01:22:32;7.63;;;3.78;;
24421;SDS011;12600;53.326;-6.298;2023-04-07T01:25:34;6.93;;;3.70;;
24421;SDS011;12600;53.326;-6.298;2023-04-07T01:28:45;6.78;;;4.00;;
24421;SDS011;12600;53.326;-6.298;2023-04-07T01:31:53;6.80;;;3.92;;
24421;SDS011;12600;53.326;-6.298;2023-04-07T01:34:46;6.75;;;3.58;;
24421;SDS011;12600;53.326;-6.298;2023-04-07T01:37:38;7.83;;;3.47;;
24421;SDS011;12600;53.326;-6.298;2023-04-07T01:40:28;5.13;;;2.97;;
24421;SDS011;12600;53.326;-6.298;2023-04-07T01:43:20;5.65;;;2.80;;
24421;SDS011;12600;53.326;-6.298;2023-04-07T01:46:10;6.28;;;2.90;;
24421;SDS011;12600;53.326;-6.298;2023-04-07T01:49:01;7.63;;;3.03;;
24421;SDS011;12600;53.326;-6.298;2023-04-07T01:51:51;5.35;;;3.17;;
24421;SDS011;12600;53.326;-6.298;2023-04-07T01:54:41;6.13;;;3.47;;
24421;SDS011;12600;53.326;-6.298;2023-04-07T01:57:31;6.32;;;3.42;;
24421;SDS011;12600;53.326;-6.298;2023-04-07T02:00:28;4.63;;;3.53;;
24421;SDS011;12600;53.326;-6.298;2023-04-07T02:03:19;5.78;;;3.22;;
24421;SDS011;12600;53.326;-6.298;2023-04-07T02:06:17;4.97;;;2.90;;
24421;SDS011;12600;53.326;-6.298;2023-04-07T02:09:15;6.35;;;3.05;;
24421;SDS011;12600;53.326;-6.298;2023-04-07T02:12:05;5.38;;;3.15;;
24421;SDS011;12600;53.326;-6.298;2023-04-07T02:15:04;4.25;;;2.78;;
24421;SDS011;12600;53.326;-6.298;2023-04-07T02:17:57;4.75;;;2.70;;
24421;SDS011;12600;53.326;-6.298;2023-04-07T02:20:48;4.93;;;2.47;;
24421;SDS011;12600;53.326;-6.298;2023-04-07T02:23:40;4.55;;;2.95;;
24421;SDS011;12600;53.326;-6.298;2023-04-07T02:26:32;3.72;;;2.38;;
24421;SDS011;12600;53.326;-6.298;2023-04-07T02:29:22;3.38;;;2.65;;
24421;SDS011;12600;53.326;-6.298;2023-04-07T02:32:11;4.25;;;2.50;;
24421;SDS011;12600;53.326;-6.298;2023-04-07T02:35:00;3.17;;;2.47;;
24421;SDS011;12600;53.326;-6.298;2023-04-07T02:37:50;5.20;;;3.20;;
24421;SDS011;12600;53.326;-6.298;2023-04-07T02:40:44;4.18;;;3.00;;
24421;SDS011;12600;53.326;-6.298;2023-04-07T02:43:33;7.50;;;2.92;;
24421;SDS011;12600;53.326;-6.298;2023-04-07T02:46:23;6.65;;;3.28;;
24421;SDS011;12600;53.326;-6.298;2023-04-07T02:49:12;6.22;;;3.10;;
24421;SDS011;12600;53.326;-6.298;2023-04-07T02:52:01;5.22;;;2.70;;
24421;SDS011;12600;53.326;-6.298;2023-04-07T02:54:51;5.53;;;3.00;;
24421;SDS011;12600;53.326;-6.298;2023-04-07T02:57:45;9.77;;;2.90;;
24421;SDS011;12600;53.326;-6.298;2023-04-07T03:00:54;5.15;;;2.55;;
24421;SDS011;12600;53.326;-6.298;2023-04-07T03:06:41;5.80;;;2.42;;
24421;SDS011;12600;53.326;-6.298;2023-04-07T03:09:33;4.57;;;2.72;;
24421;SDS011;12600;53.326;-6.298;2023-04-07T03:12:23;3.47;;;2.40;;
24421;SDS011;12600;53.326;-6.298;2023-04-07T03:15:13;5.97;;;2.60;;
24421;SDS011;12600;53.326;-6.298;2023-04-07T03:18:06;4.57;;;2.70;;
24421;SDS011;12600;53.326;-6.298;2023-04-07T03:20:59;8.47;;;3.63;;
24421;SDS011;12600;53.326;-6.298;2023-04-07T03:23:49;9.82;;;5.70;;
24421;SDS011;12600;53.326;-6.298;2023-04-07T03:26:39;11.60;;;8.75;;
24421;SDS011;12600;53.326;-6.298;2023-04-07T03:29:44;12.25;;;9.30;;
24421;SDS011;12600;53.326;-6.298;2023-04-07T03:32:37;14.65;;;9.35;;
24421;SDS011;12600;53.326;-6.298;2023-04-07T03:35:26;15.75;;;11.27;;
24421;SDS011;12600;53.326;-6.298;2023-04-07T03:38:15;13.93;;;9.77;;
24421;SDS011;12600;53.326;-6.298;2023-04-07T03:41:05;15.15;;;10.57;;
24421;SDS011;12600;53.326;-6.298;2023-04-07T03:43:57;14.02;;;10.68;;
24421;SDS011;12600;53.326;-6.298;2023-04-07T03:49:41;14.07;;;9.13;;
24421;SDS011;12600;53.326;-6.298;2023-04-07T03:52:30;13.13;;;8.50;;
24421;SDS011;12600;53.326;-6.298;2023-04-07T03:55:28;10.80;;;7.60;;
24421;SDS011;12600;53.326;-6.298;2023-04-07T03:58:26;8.75;;;6.70;;
24421;SDS011;12600;53.326;-6.298;2023-04-07T04:01:16;7.55;;;5.20;;
24421;SDS011;12600;53.326;-6.298;2023-04-07T04:04:08;8.30;;;5.20;;
24421;SDS011;12600;53.326;-6.298;2023-04-07T04:07:02;8.82;;;6.03;;
24421;SDS011;12600;53.326;-6.298;2023-04-07T04:09:59;12.18;;;6.20;;
24421;SDS011;12600;53.326;-6.298;2023-04-07T04:12:53;8.30;;;6.30;;
24421;SDS011;12600;53.326;-6.298;2023-04-07T04:15:42;13.93;;;6.47;;
24421;SDS011;12600;53.326;-6.298;2023-04-07T04:18:34;10.10;;;6.45;;
24421;SDS011;12600;53.326;-6.298;2023-04-07T04:21:25;11.68;;;6.10;;
24421;SDS011;12600;53.326;-6.298;2023-04-07T04:24:17;8.10;;;6.68;;
24421;SDS011;12600;53.326;-6.298;2023-04-07T04:27:06;9.38;;;6.60;;
24421;SDS011;12600;53.326;-6.298;2023-04-07T04:29:56;10.40;;;7.00;;
24421;SDS011;12600;53.326;-6.298;2023-04-07T04:32:54;11.90;;;6.95;;
24421;SDS011;12600;53.326;-6.298;2023-04-07T04:35:52;9.45;;;6.40;;
24421;SDS011;12600;53.326;-6.298;2023-04-07T04:38:43;9.35;;;6.40;;
24421;SDS011;12600;53.326;-6.298;2023-04-07T04:41:37;7.72;;;5.55;;
24421;SDS011;12600;53.326;-6.298;2023-04-07T04:44:28;7.95;;;5.45;;
24421;SDS011;12600;53.326;-6.298;2023-04-07T04:47:20;9.10;;;4.47;;
24421;SDS011;12600;53.326;-6.298;2023-04-07T04:50:10;7.90;;;4.60;;
24421;SDS011;12600;53.326;-6.298;2023-04-07T04:53:01;6.07;;;4.22;;
24421;SDS011;12600;53.326;-6.298;2023-04-07T04:55:50;6.88;;;5.28;;
24421;SDS011;12600;53.326;-6.298;2023-04-07T04:58:45;10.63;;;4.22;;
24421;SDS011;12600;53.326;-6.298;2023-04-07T05:01:50;6.85;;;4.18;;
24421;SDS011;12600;53.326;-6.298;2023-04-07T05:04:40;8.43;;;4.47;;
24421;SDS011;12600;53.326;-6.298;2023-04-07T05:07:40;5.90;;;4.20;;
24421;SDS011;12600;53.326;-6.298;2023-04-07T05:10:32;8.77;;;4.28;;
24421;SDS011;12600;53.326;-6.298;2023-04-07T05:13:27;9.18;;;3.75;;
24421;SDS011;12600;53.326;-6.298;2023-04-07T05:16:21;6.35;;;4.13;;
24421;SDS011;12600;53.326;-6.298;2023-04-07T05:19:11;8.02;;;4.28;;
24421;SDS011;12600;53.326;-6.298;2023-04-07T05:22:01;8.82;;;4.45;;
24421;SDS011;12600;53.326;-6.298;2023-04-07T05:24:58;6.45;;;3.72;;
24421;SDS011;12600;53.326;-6.298;2023-04-07T05:27:47;9.25;;;4.25;;
24421;SDS011;12600;53.326;-6.298;2023-04-07T05:30:37;5.72;;;3.90;;
24421;SDS011;12600;53.326;-6.298;2023-04-07T05:33:28;6.50;;;3.70;;
24421;SDS011;12600;53.326;-6.298;2023-04-07T05:36:17;6.80;;;4.38;;
24421;SDS011;12600;53.326;-6.298;2023-04-07T05:39:11;6.53;;;4.25;;
24421;SDS011;12600;53.326;-6.298;2023-04-07T05:42:00;6.95;;;4.47;;
24421;SDS011;12600;53.326;-6.298;2023-04-07T05:44:50;9.18;;;4.88;;
24421;SDS011;12600;53.326;-6.298;2023-04-07T05:47:42;8.40;;;4.90;;
24421;SDS011;12600;53.326;-6.298;2023-04-07T05:50:35;8.98;;;5.32;;
24421;SDS011;12600;53.326;-6.298;2023-04-07T05:53:29;10.43;;;4.85;;
24421;SDS011;12600;53.326;-6.298;2023-04-07T05:56:18;11.23;;;5.32;;
24421;SDS011;12600;53.326;-6.298;2023-04-07T05:59:08;11.10;;;6.22;;
24421;SDS011;12600;53.326;-6.298;2023-04-07T06:01:58;9.45;;;5.45;;
24421;SDS011;12600;53.326;-6.298;2023-04-07T06:04:48;10.93;;;5.57;;
24421;SDS011;12600;53.326;-6.298;2023-04-07T06:07:40;10.13;;;5.63;;
24421;SDS011;12600;53.326;-6.298;2023-04-07T06:10:29;10.35;;;6.05;;
24421;SDS011;12600;53.326;-6.298;2023-04-07T06:13:19;11.45;;;5.75;;
24421;SDS011;12600;53.326;-6.298;2023-04-07T06:16:08;10.20;;;5.70;;
24421;SDS011;12600;53.326;-6.298;2023-04-07T06:18:57;12.60;;;5.95;;
24421;SDS011;12600;53.326;-6.298;2023-04-07T06:21:48;15.02;;;6.07;;
24421;SDS011;12600;53.326;-6.298;2023-04-07T06:24:39;13.70;;;6.07;;
24421;SDS011;12600;53.326;-6.298;2023-04-07T06:27:28;11.73;;;6.22;;
24421;SDS011;12600;53.326;-6.298;2023-04-07T06:30:19;11.80;;;6.53;;
24421;SDS011;12600;53.326;-6.298;2023-04-07T06:33:08;14.77;;;7.38;;
24421;SDS011;12600;53.326;-6.298;2023-04-07T06:35:59;15.85;;;6.93;;
24421;SDS011;12600;53.326;-6.298;2023-04-07T06:38:53;13.68;;;7.13;;
24421;SDS011;12600;53.326;-6.298;2023-04-07T06:41:45;14.90;;;7.18;;
24421;SDS011;12600;53.326;-6.298;2023-04-07T06:44:35;17.97;;;8.20;;
24421;SDS011;12600;53.326;-6.298;2023-04-07T06:47:24;13.23;;;7.40;;
24421;SDS011;12600;53.326;-6.298;2023-04-07T06:50:17;16.25;;;7.43;;
24421;SDS011;12600;53.326;-6.298;2023-04-07T06:53:08;14.25;;;7.43;;
24421;SDS011;12600;53.326;-6.298;2023-04-07T06:56:04;22.55;;;8.35;;
24421;SDS011;12600;53.326;-6.298;2023-04-07T06:58:56;14.52;;;8.30;;
24421;SDS011;12600;53.326;-6.298;2023-04-07T07:01:45;19.20;;;9.20;;
24421;SDS011;12600;53.326;-6.298;2023-04-07T07:04:35;25.38;;;10.10;;
24421;SDS011;12600;53.326;-6.298;2023-04-07T07:07:27;19.48;;;11.32;;
24421;SDS011;12600;53.326;-6.298;2023-04-07T07:10:16;20.05;;;11.07;;
24421;SDS011;12600;53.326;-6.298;2023-04-07T07:13:08;25.23;;;10.60;;
24421;SDS011;12600;53.326;-6.298;2023-04-07T07:16:03;13.35;;;8.43;;
24421;SDS011;12600;53.326;-6.298;2023-04-07T07:18:53;15.45;;;9.32;;
24421;SDS011;12600;53.326;-6.298;2023-04-07T07:21:42;15.45;;;9.68;;
24421;SDS011;12600;53.326;-6.298;2023-04-07T07:24:32;20.20;;;9.82;;
24421;SDS011;12600;53.326;-6.298;2023-04-07T07:27:21;21.33;;;10.70;;
24421;SDS011;12600;53.326;-6.298;2023-04-07T07:30:10;25.10;;;9.90;;
24421;SDS011;12600;53.326;-6.298;2023-04-07T07:33:01;22.17;;;9.98;;
24421;SDS011;12600;53.326;-6.298;2023-04-07T07:35:51;20.08;;;10.55;;
24421;SDS011;12600;53.326;-6.298;2023-04-07T07:38:40;19.55;;;10.75;;
24421;SDS011;12600;53.326;-6.298;2023-04-07T07:41:29;18.17;;;10.88;;
24421;SDS011;12600;53.326;-6.298;2023-04-07T07:44:18;29.75;;;11.82;;
24421;SDS011;12600;53.326;-6.298;2023-04-07T07:47:08;18.35;;;10.20;;
24421;SDS011;12600;53.326;-6.298;2023-04-07T07:49:59;15.90;;;9.45;;
24421;SDS011;12600;53.326;-6.298;2023-04-07T07:52:49;20.65;;;9.70;;
24421;SDS011;12600;53.326;-6.298;2023-04-07T07:55:38;17.80;;;8.98;;
24421;SDS011;12600;53.326;-6.298;2023-04-07T07:58:27;17.98;;;7.70;;
24421;SDS011;12600;53.326;-6.298;2023-04-07T08:01:17;16.80;;;7.32;;
24421;SDS011;12600;53.326;-6.298;2023-04-07T08:04:06;15.43;;;7.45;;
24421;SDS011;12600;53.326;-6.298;2023-04-07T08:06:57;16.17;;;7.55;;
24421;SDS011;12600;53.326;-6.298;2023-04-07T08:09:46;12.07;;;6.63;;
24421;SDS011;12600;53.326;-6.298;2023-04-07T08:12:36;16.92;;;6.35;;
24421;SDS011;12600;53.326;-6.298;2023-04-07T08:15:25;14.52;;;5.75;;
24421;SDS011;12600;53.326;-6.298;2023-04-07T08:18:14;11.02;;;5.43;;
24421;SDS011;12600;53.326;-6.298;2023-04-07T08:21:04;12.32;;;5.10;;
24421;SDS011;12600;53.326;-6.298;2023-04-07T08:23:55;9.57;;;4.53;;
24421;SDS011;12600;53.326;-6.298;2023-04-07T08:26:45;7.65;;;4.82;;
24421;SDS011;12600;53.326;-6.298;2023-04-07T08:29:34;8.75;;;4.63;;
24421;SDS011;12600;53.326;-6.298;2023-04-07T08:32:23;11.15;;;5.32;;
24421;SDS011;12600;53.326;-6.298;2023-04-07T08:35:12;8.70;;;4.45;;
24421;SDS011;12600;53.326;-6.298;2023-04-07T08:38:02;11.18;;;4.55;;
24421;SDS011;12600;53.326;-6.298;2023-04-07T08:40:53;9.95;;;4.82;;
24421;SDS011;12600;53.326;-6.298;2023-04-07T08:43:50;12.40;;;4.85;;
24421;SDS011;12600;53.326;-6.298;2023-04-07T08:46:40;5.47;;;3.92;;
24421;SDS011;12600;53.326;-6.298;2023-04-07T08:49:30;10.23;;;4.07;;
24421;SDS011;12600;53.326;-6.298;2023-04-07T08:52:24;6.80;;;3.42;;
24421;SDS011;12600;53.326;-6.298;2023-04-07T08:55:22;7.65;;;3.42;;
24421;SDS011;12600;53.326;-6.298;2023-04-07T08:58:13;5.53;;;3.63;;
24421;SDS011;12600;53.326;-6.298;2023-04-07T09:01:04;7.80;;;2.92;;
24421;SDS011;12600;53.326;-6.298;2023-04-07T09:03:53;5.78;;;3.15;;
24421;SDS011;12600;53.326;-6.298;2023-04-07T09:06:45;6.90;;;3.40;;
24421;SDS011;12600;53.326;-6.298;2023-04-07T09:09:34;4.40;;;2.67;;
24421;SDS011;12600;53.326;-6.298;2023-04-07T09:12:24;5.53;;;2.70;;
24421;SDS011;12600;53.326;-6.298;2023-04-07T09:15:16;8.57;;;2.58;;
24421;SDS011;12600;53.326;-6.298;2023-04-07T09:18:06;5.60;;;4.50;;
24421;SDS011;12600;53.326;-6.298;2023-04-07T09:20:59;5.53;;;3.03;;
24421;SDS011;12600;53.326;-6.298;2023-04-07T09:23:50;5.88;;;2.72;;
24421;SDS011;12600;53.326;-6.298;2023-04-07T09:26:39;5.13;;;2.72;;
24421;SDS011;12600;53.326;-6.298;2023-04-07T09:29:28;6.03;;;2.90;;
24421;SDS011;12600;53.326;-6.298;2023-04-07T09:32:33;4.45;;;3.28;;
24421;SDS011;12600;53.326;-6.298;2023-04-07T09:35:25;4.65;;;3.00;;
24421;SDS011;12600;53.326;-6.298;2023-04-07T09:38:16;8.63;;;4.35;;
24421;SDS011;12600;53.326;-6.298;2023-04-07T09:41:05;8.43;;;3.17;;
24421;SDS011;12600;53.326;-6.298;2023-04-07T09:43:56;9.00;;;4.45;;
24421;SDS011;12600;53.326;-6.298;2023-04-07T09:46:49;9.43;;;4.65;;
24421;SDS011;12600;53.326;-6.298;2023-04-07T09:49:50;9.65;;;3.80;;
24421;SDS011;12600;53.326;-6.298;2023-04-07T09:52:49;9.80;;;4.07;;
24421;SDS011;12600;53.326;-6.298;2023-04-07T09:55:39;6.03;;;4.40;;
24421;SDS011;12600;53.326;-6.298;2023-04-07T09:58:32;11.27;;;3.90;;
24421;SDS011;12600;53.326;-6.298;2023-04-07T10:01:22;9.93;;;3.88;;
24421;SDS011;12600;53.326;-6.298;2023-04-07T10:04:11;9.23;;;4.50;;
24421;SDS011;12600;53.326;-6.298;2023-04-07T10:07:02;8.82;;;4.18;;
24421;SDS011;12600;53.326;-6.298;2023-04-07T10:09:53;9.20;;;4.30;;
24421;SDS011;12600;53.326;-6.298;2023-04-07T10:12:42;9.63;;;4.25;;
24421;SDS011;12600;53.326;-6.298;2023-04-07T10:15:32;9.35;;;3.95;;
24421;SDS011;12600;53.326;-6.298;2023-04-07T10:18:24;12.23;;;5.35;;
24421;SDS011;12600;53.326;-6.298;2023-04-07T10:21:18;9.43;;;4.97;;
24421;SDS011;12600;53.326;-6.298;2023-04-07T10:24:13;13.00;;;7.22;;
24421;SDS011;12600;53.326;-6.298;2023-04-07T10:27:18;18.50;;;16.92;;
24421;SDS011;12600;53.326;-6.298;2023-04-07T10:30:16;9.93;;;8.27;;
24421;SDS011;12600;53.326;-6.298;2023-04-07T10:33:11;10.48;;;5.43;;
24421;SDS011;12600;53.326;-6.298;2023-04-07T10:36:03;8.80;;;6.32;;
24421;SDS011;12600;53.326;-6.298;2023-04-07T10:45:54;8.88;;;6.85;;
24421;SDS011;12600;53.326;-6.298;2023-04-07T10:48:53;8.30;;;7.22;;
24421;SDS011;12600;53.326;-6.298;2023-04-07T10:55:44;10.60;;;8.32;;
24421;SDS011;12600;53.326;-6.298;2023-04-07T10:58:34;11.15;;;9.10;;
24421;SDS011;12600;53.326;-6.298;2023-04-07T11:01:23;7.45;;;6.35;;
24421;SDS011;12600;53.326;-6.298;2023-04-07T11:04:13;10.27;;;9.32;;
24421;SDS011;12600;53.326;-6.298;2023-04-07T11:07:03;15.77;;;14.50;;
24421;SDS011;12600;53.326;-6.298;2023-04-07T11:10:07;10.20;;;8.65;;
24421;SDS011;12600;53.326;-6.298;2023-04-07T11:13:03;9.35;;;8.23;;
24421;SDS011;12600;53.326;-6.298;2023-04-07T11:15:54;11.75;;;9.23;;
24421;SDS011;12600;53.326;-6.298;2023-04-07T11:18:44;11.60;;;10.70;;
24421;SDS011;12600;53.326;-6.298;2023-04-07T11:21:34;12.20;;;8.82;;
24421;SDS011;12600;53.326;-6.298;2023-04-07T11:24:30;12.07;;;10.90;;
24421;SDS011;12600;53.326;-6.298;2023-04-07T11:27:20;9.85;;;8.90;;
24421;SDS011;12600;53.326;-6.298;2023-04-07T11:30:12;9.38;;;7.93;;
24421;SDS011;12600;53.326;-6.298;2023-04-07T11:33:04;20.67;;;19.13;;
24421;SDS011;12600;53.326;-6.298;2023-04-07T11:35:55;9.77;;;8.75;;
24421;SDS011;12600;53.326;-6.298;2023-04-07T11:38:46;11.70;;;7.40;;
24421;SDS011;12600;53.326;-6.298;2023-04-07T11:41:43;9.10;;;6.45;;
24421;SDS011;12600;53.326;-6.298;2023-04-07T11:44:34;11.48;;;4.43;;
24421;SDS011;12600;53.326;-6.298;2023-04-07T11:47:34;9.70;;;8.60;;
24421;SDS011;12600;53.326;-6.298;2023-04-07T11:50:38;9.80;;;8.02;;
24421;SDS011;12600;53.326;-6.298;2023-04-07T11:53:29;7.93;;;7.10;;
24421;SDS011;12600;53.326;-6.298;2023-04-07T11:56:21;8.83;;;7.93;;
24421;SDS011;12600;53.326;-6.298;2023-04-07T11:59:20;9.15;;;8.20;;
24421;SDS011;12600;53.326;-6.298;2023-04-07T12:02:22;7.93;;;4.40;;
24421;SDS011;12600;53.326;-6.298;2023-04-07T12:05:21;11.80;;;10.40;;
24421;SDS011;12600;53.326;-6.298;2023-04-07T12:08:11;6.82;;;5.80;;
24421;SDS011;12600;53.326;-6.298;2023-04-07T12:11:02;8.68;;;5.40;;
24421;SDS011;12600;53.326;-6.298;2023-04-07T12:13:51;10.07;;;5.00;;
24421;SDS011;12600;53.326;-6.298;2023-04-07T12:16:41;19.40;;;17.88;;
24421;SDS011;12600;53.326;-6.298;2023-04-07T12:19:31;11.85;;;8.75;;
24421;SDS011;12600;53.326;-6.298;2023-04-07T12:22:23;9.25;;;8.35;;
24421;SDS011;12600;53.326;-6.298;2023-04-07T12:25:13;7.53;;;6.43;;
24421;SDS011;12600;53.326;-6.298;2023-04-07T12:28:03;10.85;;;9.02;;
24421;SDS011;12600;53.326;-6.298;2023-04-07T12:30:53;10.00;;;6.90;;
24421;SDS011;12600;53.326;-6.298;2023-04-07T12:33:42;14.15;;;12.98;;
24421;SDS011;12600;53.326;-6.298;2023-04-07T12:36:32;10.20;;;8.98;;
24421;SDS011;12600;53.326;-6.298;2023-04-07T12:39:24;7.95;;;5.15;;
24421;SDS011;12600;53.326;-6.298;2023-04-07T12:42:13;13.85;;;12.60;;
24421;SDS011;12600;53.326;-6.298;2023-04-07T12:45:03;8.95;;;6.75;;
24421;SDS011;12600;53.326;-6.298;2023-04-07T12:47:53;8.15;;;6.60;;
24421;SDS011;12600;53.326;-6.298;2023-04-07T12:50:43;11.38;;;6.32;;
24421;SDS011;12600;53.326;-6.298;2023-04-07T12:53:32;11.07;;;6.22;;
24421;SDS011;12600;53.326;-6.298;2023-04-07T12:56:23;8.65;;;7.07;;
24421;SDS011;12600;53.326;-6.298;2023-04-07T12:59:12;12.55;;;9.77;;
24421;SDS011;12600;53.326;-6.298;2023-04-07T13:02:02;12.40;;;7.50;;
24421;SDS011;12600;53.326;-6.298;2023-04-07T13:04:52;15.00;;;10.27;;
24421;SDS011;12600;53.326;-6.298;2023-04-07T13:07:41;18.77;;;16.83;;
24421;SDS011;12600;53.326;-6.298;2023-04-07T13:10:30;15.90;;;5.97;;
24421;SDS011;12600;53.326;-6.298;2023-04-07T13:13:21;8.70;;;5.60;;
24421;SDS011;12600;53.326;-6.298;2023-04-07T13:16:11;11.20;;;6.00;;
24421;SDS011;12600;53.326;-6.298;2023-04-07T13:19:00;9.45;;;6.85;;
24421;SDS011;12600;53.326;-6.298;2023-04-07T13:21:50;10.10;;;5.70;;
24421;SDS011;12600;53.326;-6.298;2023-04-07T13:24:39;13.55;;;5.80;;
24421;SDS011;12600;53.326;-6.298;2023-04-07T13:27:28;9.68;;;6.45;;
24421;SDS011;12600;53.326;-6.298;2023-04-07T13:30:19;7.68;;;5.95;;
24421;SDS011;12600;53.326;-6.298;2023-04-07T13:33:08;9.00;;;4.78;;
24421;SDS011;12600;53.326;-6.298;2023-04-07T13:35:58;9.52;;;5.25;;
24421;SDS011;12600;53.326;-6.298;2023-04-07T13:38:47;8.73;;;3.95;;
24421;SDS011;12600;53.326;-6.298;2023-04-07T13:41:36;8.82;;;6.47;;
24421;SDS011;12600;53.326;-6.298;2023-04-07T13:44:26;11.40;;;4.75;;
24421;SDS011;12600;53.326;-6.298;2023-04-07T13:47:17;7.22;;;4.30;;
24421;SDS011;12600;53.326;-6.298;2023-04-07T13:50:07;7.75;;;4.22;;
24421;SDS011;12600;53.326;-6.298;2023-04-07T13:52:57;10.38;;;8.38;;
24421;SDS011;12600;53.326;-6.298;2023-04-07T13:55:47;5.22;;;3.90;;
24421;SDS011;12600;53.326;-6.298;2023-04-07T13:58:36;10.40;;;5.63;;
24421;SDS011;12600;53.326;-6.298;2023-04-07T14:01:25;8.95;;;4.72;;
24421;SDS011;12600;53.326;-6.298;2023-04-07T14:04:17;10.20;;;5.22;;
24421;SDS011;12600;53.326;-6.298;2023-04-07T14:07:07;6.95;;;5.75;;
24421;SDS011;12600;53.326;-6.298;2023-04-07T14:09:56;9.30;;;4.30;;
24421;SDS011;12600;53.326;-6.298;2023-04-07T14:12:45;11.88;;;5.78;;
24421;SDS011;12600;53.326;-6.298;2023-04-07T14:15:35;9.65;;;4.70;;
24421;SDS011;12600;53.326;-6.298;2023-04-07T14:18:24;9.18;;;8.27;;
24421;SDS011;12600;53.326;-6.298;2023-04-07T14:21:15;9.57;;;5.85;;
24421;SDS011;12600;53.326;-6.298;2023-04-07T14:24:04;6.22;;;3.42;;
24421;SDS011;12600;53.326;-6.298;2023-04-07T14:26:54;6.43;;;4.07;;
24421;SDS011;12600;53.326;-6.298;2023-04-07T14:29:43;6.65;;;4.30;;
24421;SDS011;12600;53.326;-6.298;2023-04-07T14:32:33;3.38;;;2.88;;
24421;SDS011;12600;53.326;-6.298;2023-04-07T14:35:22;6.55;;;3.67;;
24421;SDS011;12600;53.326;-6.298;2023-04-07T14:38:13;7.70;;;4.18;;
24421;SDS011;12600;53.326;-6.298;2023-04-07T14:41:02;6.00;;;3.20;;
24421;SDS011;12600;53.326;-6.298;2023-04-07T14:43:56;5.72;;;3.30;;
24421;SDS011;12600;53.326;-6.298;2023-04-07T14:46:45;8.50;;;3.13;;
24421;SDS011;12600;53.326;-6.298;2023-04-07T14:49:34;4.88;;;2.42;;
24421;SDS011;12600;53.326;-6.298;2023-04-07T14:52:24;5.57;;;2.83;;
24421;SDS011;12600;53.326;-6.298;2023-04-07T14:55:15;5.80;;;2.90;;
24421;SDS011;12600;53.326;-6.298;2023-04-07T14:58:04;5.85;;;2.53;;
24421;SDS011;12600;53.326;-6.298;2023-04-07T15:00:54;5.88;;;2.97;;
24421;SDS011;12600;53.326;-6.298;2023-04-07T15:03:43;4.15;;;3.05;;
24421;SDS011;12600;53.326;-6.298;2023-04-07T15:06:34;4.65;;;2.67;;
24421;SDS011;12600;53.326;-6.298;2023-04-07T15:09:23;7.95;;;3.28;;
24421;SDS011;12600;53.326;-6.298;2023-04-07T15:12:13;4.55;;;2.50;;
24421;SDS011;12600;53.326;-6.298;2023-04-07T15:15:03;5.20;;;2.05;;
24421;SDS011;12600;53.326;-6.298;2023-04-07T15:17:53;5.10;;;3.63;;
24421;SDS011;12600;53.326;-6.298;2023-04-07T15:20:43;4.25;;;2.80;;
24421;SDS011;12600;53.326;-6.298;2023-04-07T15:23:33;7.43;;;6.80;;
24421;SDS011;12600;53.326;-6.298;2023-04-07T15:26:24;4.57;;;2.78;;
24421;SDS011;12600;53.326;-6.298;2023-04-07T15:29:15;5.25;;;2.33;;
24421;SDS011;12600;53.326;-6.298;2023-04-07T15:32:04;4.97;;;2.17;;
24421;SDS011;12600;53.326;-6.298;2023-04-07T15:34:54;8.13;;;3.55;;
24421;SDS011;12600;53.326;-6.298;2023-04-07T15:37:43;6.13;;;2.78;;
24421;SDS011;12600;53.326;-6.298;2023-04-07T15:40:34;4.20;;;2.08;;
24421;SDS011;12600;53.326;-6.298;2023-04-07T15:43:24;6.22;;;2.50;;
24421;SDS011;12600;53.326;-6.298;2023-04-07T15:46:15;6.55;;;4.28;;
24421;SDS011;12600;53.326;-6.298;2023-04-07T15:49:05;2.70;;;2.00;;
24421;SDS011;12600;53.326;-6.298;2023-04-07T15:51:54;5.13;;;2.65;;
24421;SDS011;12600;53.326;-6.298;2023-04-07T15:54:43;6.72;;;2.92;;
24421;SDS011;12600;53.326;-6.298;2023-04-07T15:57:33;4.57;;;1.85;;
24421;SDS011;12600;53.326;-6.298;2023-04-07T16:00:22;6.32;;;5.72;;
24421;SDS011;12600;53.326;-6.298;2023-04-07T16:03:13;4.63;;;2.40;;
24421;SDS011;12600;53.326;-6.298;2023-04-07T16:06:03;4.20;;;3.38;;
24421;SDS011;12600;53.326;-6.298;2023-04-07T16:08:52;15.20;;;14.15;;
24421;SDS011;12600;53.326;-6.298;2023-04-07T16:11:42;3.88;;;3.13;;
24421;SDS011;12600;53.326;-6.298;2023-04-07T16:14:31;4.65;;;2.42;;
24421;SDS011;12600;53.326;-6.298;2023-04-07T16:17:21;3.22;;;1.75;;
24421;SDS011;12600;53.326;-6.298;2023-04-07T16:20:13;2.67;;;1.90;;
24421;SDS011;12600;53.326;-6.298;2023-04-07T16:23:02;7.80;;;6.63;;
24421;SDS011;12600;53.326;-6.298;2023-04-07T16:25:52;5.68;;;2.67;;
24421;SDS011;12600;53.326;-6.298;2023-04-07T16:28:41;3.95;;;2.58;;
24421;SDS011;12600;53.326;-6.298;2023-04-07T16:31:30;4.70;;;1.90;;
24421;SDS011;12600;53.326;-6.298;2023-04-07T16:34:20;3.97;;;2.30;;
24421;SDS011;12600;53.326;-6.298;2023-04-07T16:37:10;3.13;;;1.85;;
24421;SDS011;12600;53.326;-6.298;2023-04-07T16:40:00;3.65;;;2.00;;
24421;SDS011;12600;53.326;-6.298;2023-04-07T16:42:50;4.75;;;2.00;;
24421;SDS011;12600;53.326;-6.298;2023-04-07T16:45:39;6.07;;;2.20;;
24421;SDS011;12600;53.326;-6.298;2023-04-07T16:48:28;4.65;;;2.00;;
24421;SDS011;12600;53.326;-6.298;2023-04-07T16:51:18;5.10;;;2.15;;
24421;SDS011;12600;53.326;-6.298;2023-04-07T16:54:09;3.83;;;1.70;;
24421;SDS011;12600;53.326;-6.298;2023-04-07T16:56:58;4.20;;;1.90;;
24421;SDS011;12600;53.326;-6.298;2023-04-07T16:59:48;3.97;;;2.65;;
24421;SDS011;12600;53.326;-6.298;2023-04-07T17:02:37;5.15;;;1.95;;
24421;SDS011;12600;53.326;-6.298;2023-04-07T17:05:26;4.95;;;2.10;;
24421;SDS011;12600;53.326;-6.298;2023-04-07T17:08:16;5.38;;;2.03;;